createdAt,value
2022-11-18T00:01:19.605Z,96905.28
2022-11-18T00:03:48.868Z,96889.13
2022-11-18T00:06:18.563Z,96898.81
2022-11-18T00:08:47.271Z,96902.59
2022-11-18T00:11:37.460Z,96898.47
2022-11-18T00:14:19.552Z,96889.88
2022-11-18T00:16:48.311Z,96892.84
2022-11-18T00:19:17.028Z,96878.81
2022-11-18T00:21:45.277Z,96881.47
2022-11-18T00:24:13.785Z,96876.59
2022-11-18T00:26:41.862Z,96890.75
2022-11-18T00:29:12.616Z,96880.94
2022-11-18T00:31:41.266Z,96883.97
2022-11-18T00:34:13.334Z,96883.13
2022-11-18T00:36:42.025Z,96885.84
2022-11-18T00:39:12.520Z,96890.69
2022-11-18T00:41:58.431Z,96885.34
2022-11-18T00:44:28.593Z,96892.59
2022-11-18T00:46:56.849Z,96886.69
2022-11-18T00:49:25.691Z,96893.44
2022-11-18T00:51:53.865Z,96896.69
2022-11-18T00:54:22.625Z,96901.28
2022-11-18T00:56:50.798Z,96895.56
2022-11-18T00:59:19.430Z,96898.84
2022-11-18T01:01:49.319Z,96905.53
2022-11-18T01:04:18.395Z,96908.81
2022-11-18T01:06:46.508Z,96912.31
2022-11-18T01:09:15.173Z,96898.72
2022-11-18T01:12:00.860Z,96888.41
2022-11-18T01:14:29.207Z,96893.81
2022-11-18T01:16:59.018Z,96886.41
2022-11-18T01:19:27.652Z,96878.63
2022-11-18T01:21:56.676Z,96881.53
2022-11-18T01:24:25.165Z,96868.34
2022-11-18T01:26:53.365Z,96863.69
2022-11-18T01:29:21.997Z,96861.84
2022-11-18T01:32:22.245Z,96862.44
2022-11-18T01:34:39.730Z,96857.91
2022-11-18T01:37:07.896Z,96854.81
2022-11-18T01:39:36.434Z,96843.63
2022-11-18T01:42:04.596Z,96843.84
2022-11-18T01:44:59.088Z,96835.19
2022-11-18T01:47:29.995Z,96838.97
2022-11-18T01:50:00.557Z,96837.28
2022-11-18T01:52:28.812Z,96834.13
2022-11-18T01:55:00.283Z,96834.03
2022-11-18T01:57:30.868Z,96832.69
2022-11-18T02:00:00.719Z,96831.94
2022-11-18T02:02:29.417Z,96830.38
2022-11-18T02:04:59.400Z,96837.63
2022-11-18T02:07:28.460Z,96831.06
2022-11-18T02:09:57.540Z,96833.47
2022-11-18T02:12:25.750Z,96838.44
2022-11-18T02:14:54.260Z,96826.19
2022-11-18T02:17:34.309Z,96819.44
2022-11-18T02:20:35.260Z,96823.38
2022-11-18T02:23:45.260Z,96820.31
2022-11-18T02:27:01.143Z,96822.00
2022-11-18T02:29:33.644Z,96824.78
2022-11-18T02:32:03.628Z,96825.03
2022-11-18T02:34:41.151Z,96827.44
2022-11-18T02:37:15.217Z,96820.41
2022-11-18T02:39:46.344Z,96825.25
2022-11-18T02:42:14.484Z,96820.94
2022-11-18T02:44:49.877Z,96826.00
2022-11-18T02:47:18.664Z,96833.41
2022-11-18T02:49:50.022Z,96825.50
2022-11-18T02:52:20.468Z,96832.25
2022-11-18T02:54:49.298Z,96825.50
2022-11-18T02:57:17.866Z,96832.34
2022-11-18T02:59:47.533Z,96839.31
2022-11-18T03:02:18.068Z,96843.09
2022-11-18T03:04:47.865Z,96839.84
2022-11-18T03:07:19.484Z,96835.22
2022-11-18T03:09:49.493Z,96829.00
2022-11-18T03:12:23.781Z,96824.41
2022-11-18T03:15:00.448Z,96826.16
2022-11-18T03:17:36.054Z,96824.03
2022-11-18T03:20:13.500Z,96821.75
2022-11-18T03:22:44.756Z,96824.88
2022-11-18T03:25:15.508Z,96815.88
2022-11-18T03:27:48.190Z,96814.16
2022-11-18T03:30:21.173Z,96816.28
2022-11-18T03:32:52.879Z,96812.31
2022-11-18T03:35:24.219Z,96806.03
2022-11-18T03:37:53.598Z,96803.59
2022-11-18T03:40:24.029Z,96796.38
2022-11-18T03:42:54.888Z,96793.16
2022-11-18T03:45:27.262Z,96798.41
2022-11-18T03:47:58.255Z,96803.16
2022-11-18T03:50:29.263Z,96818.88
2022-11-18T03:52:57.344Z,96807.66
2022-11-18T03:55:30.108Z,96806.78
2022-11-18T03:58:03.279Z,96799.25
2022-11-18T04:00:36.592Z,96803.25
2022-11-18T04:03:05.267Z,96802.34
2022-11-18T04:05:36.163Z,96794.13
2022-11-18T04:08:06.625Z,96799.16
2022-11-18T04:10:36.948Z,96789.22
2022-11-18T04:13:08.912Z,96793.00
2022-11-18T04:15:41.601Z,96790.16
2022-11-18T04:18:10.852Z,96780.97
2022-11-18T04:20:39.222Z,96777.78
2022-11-18T04:23:08.837Z,96781.22
2022-11-18T04:25:37.314Z,96773.72
2022-11-18T04:28:06.054Z,96782.66
2022-11-18T04:30:34.434Z,96779.66
2022-11-18T04:33:07.363Z,96773.16
2022-11-18T04:35:35.532Z,96779.25
2022-11-18T04:38:05.038Z,96769.91
2022-11-18T04:40:33.275Z,96768.31
2022-11-18T04:43:01.769Z,96772.91
2022-11-18T04:45:29.886Z,96776.16
2022-11-18T04:48:03.307Z,96776.69
2022-11-18T04:50:33.256Z,96773.97
2022-11-18T04:53:01.634Z,96776.13
2022-11-18T04:55:29.634Z,96776.94
2022-11-18T04:57:58.096Z,96789.66
2022-11-18T05:00:26.179Z,96803.09
2022-11-18T05:02:54.745Z,96790.19
2022-11-18T05:05:22.937Z,96798.84
2022-11-18T05:07:53.389Z,96798.28
2022-11-18T05:10:21.395Z,96796.94
2022-11-18T05:12:48.852Z,96787.47
2022-11-18T05:15:17.545Z,96789.66
2022-11-18T05:17:46.079Z,96789.09
2022-11-18T05:20:14.652Z,96784.25
2022-11-18T05:22:42.915Z,96788.53
2022-11-18T05:25:12.430Z,96792.38
2022-11-18T05:27:40.745Z,96794.47
2022-11-18T05:30:10.162Z,96795.53
2022-11-18T05:32:38.477Z,96797.59
2022-11-18T05:35:07.448Z,96787.75
2022-11-18T05:37:35.868Z,96803.00
2022-11-18T05:40:04.443Z,96806.88
2022-11-18T05:42:51.329Z,96808.56
2022-11-18T05:45:20.672Z,96810.16
2022-11-18T05:48:01.252Z,96809.63
2022-11-18T05:50:29.361Z,96818.28
2022-11-18T05:52:57.801Z,96828.03
2022-11-18T05:55:30.955Z,96824.25
2022-11-18T05:58:00.771Z,96822.63
2022-11-18T06:00:28.975Z,96831.81
2022-11-18T06:02:58.141Z,96826.38
2022-11-18T06:05:27.809Z,96824.75
2022-11-18T06:07:57.229Z,96832.25
2022-11-18T06:10:27.641Z,96828.00
2022-11-18T06:12:57.925Z,96831.50
2022-11-18T06:15:29.796Z,96841.00
2022-11-18T06:18:00.865Z,96836.66
2022-11-18T06:20:29.386Z,96845.34
2022-11-18T06:22:58.723Z,96847.47
2022-11-18T06:25:27.029Z,96855.84
2022-11-18T06:27:56.825Z,96856.69
2022-11-18T06:30:25.147Z,96861.00
2022-11-18T06:32:54.911Z,96858.81
2022-11-18T06:35:23.056Z,96865.00
2022-11-18T06:37:51.697Z,96865.28
2022-11-18T06:40:20.030Z,96865.53
2022-11-18T06:43:05.967Z,96869.03
2022-11-18T06:45:36.609Z,96865.88
2022-11-18T06:48:06.062Z,96870.72
2022-11-18T06:50:34.109Z,96877.47
2022-11-18T06:53:02.480Z,96865.59
2022-11-18T06:55:30.589Z,96869.59
2022-11-18T06:57:59.013Z,96874.78
2022-11-18T07:00:27.179Z,96876.69
2022-11-18T07:02:55.686Z,96877.22
2022-11-18T07:05:25.066Z,96880.44
2022-11-18T07:07:53.465Z,96882.09
2022-11-18T07:10:21.649Z,96888.03
2022-11-18T07:12:50.159Z,96882.06
2022-11-18T07:15:18.496Z,96881.25
2022-11-18T07:17:46.970Z,96882.53
2022-11-18T07:20:15.208Z,96884.63
2022-11-18T07:22:45.035Z,96879.75
2022-11-18T07:25:13.102Z,96880.66
2022-11-18T07:27:41.759Z,96881.19
2022-11-18T07:30:10.731Z,96879.59
2022-11-18T07:32:39.224Z,96873.84
2022-11-18T07:35:08.284Z,96866.41
2022-11-18T07:37:36.695Z,96865.88
2022-11-18T07:40:07.710Z,96865.31
2022-11-18T07:42:42.819Z,96863.97
2022-11-18T07:45:12.309Z,96859.78
2022-11-18T07:47:40.746Z,96865.13
2022-11-18T07:50:09.510Z,96858.72
2022-11-18T07:52:37.865Z,96864.75
2022-11-18T07:55:08.066Z,96866.94
2022-11-18T07:57:36.467Z,96867.50
2022-11-18T08:00:05.987Z,96867.50
2022-11-18T08:02:34.603Z,96869.84
2022-11-18T08:05:02.967Z,96872.00
2022-11-18T08:07:31.469Z,96868.25
2022-11-18T08:09:59.528Z,96871.53
2022-11-18T08:12:30.826Z,96871.25
2022-11-18T08:14:59.057Z,96865.88
2022-11-18T08:17:27.590Z,96871.78
2022-11-18T08:19:55.886Z,96880.31
2022-11-18T08:22:24.626Z,96877.91
2022-11-18T08:24:52.759Z,96882.00
2022-11-18T08:27:21.466Z,96884.16
2022-11-18T08:29:51.009Z,96883.97
2022-11-18T08:32:20.037Z,96893.16
2022-11-18T08:34:48.120Z,96896.44
2022-11-18T08:37:16.594Z,96892.56
2022-11-18T08:39:44.884Z,96892.88
2022-11-18T08:42:13.383Z,96889.63
2022-11-18T08:44:41.455Z,96899.91
2022-11-18T08:47:11.476Z,96888.31
2022-11-18T08:49:39.717Z,96896.13
2022-11-18T08:52:08.188Z,96892.34
2022-11-18T08:54:36.405Z,96899.94
2022-11-18T08:57:05.082Z,96898.03
2022-11-18T08:59:33.429Z,96905.59
2022-11-18T09:02:02.043Z,96893.97
2022-11-18T09:04:31.848Z,96898.81
2022-11-18T09:07:00.431Z,96893.97
2022-11-18T09:09:28.812Z,96903.13
2022-11-18T09:11:57.377Z,96895.81
2022-11-18T09:17:15.356Z,96906.31
2022-11-18T09:20:05.878Z,96897.63
2022-11-18T09:22:33.953Z,96893.94
2022-11-18T09:25:02.500Z,96899.28
2022-11-18T09:27:30.567Z,96900.06
2022-11-18T09:29:59.017Z,96903.63
2022-11-18T09:32:27.227Z,96894.13
2022-11-18T09:34:55.795Z,96904.94
2022-11-18T09:37:25.265Z,96900.31
2022-11-18T09:39:53.773Z,96903.66
2022-11-18T09:42:31.247Z,96905.13
2022-11-18T09:45:14.058Z,96883.00
2022-11-18T09:47:44.314Z,96883.94
2022-11-18T09:50:47.424Z,96890.88
2022-11-18T09:53:12.424Z,96896.44
2022-11-18T09:55:41.940Z,96899.63
2022-11-18T09:58:16.744Z,96892.22
2022-11-18T10:00:46.887Z,96902.31
2022-11-18T10:03:18.914Z,96907.47
2022-11-18T10:05:50.318Z,96910.72
2022-11-18T10:08:23.708Z,96912.31
2022-11-18T10:10:59.525Z,96921.22
2022-11-18T10:13:36.766Z,96921.75
2022-11-18T10:16:11.497Z,96928.75
2022-11-18T10:18:59.767Z,96922.44
2022-11-18T10:21:39.194Z,96912.25
2022-11-18T10:24:14.581Z,96932.34
2022-11-18T10:26:43.427Z,96932.91
2022-11-18T10:29:11.704Z,96935.59
2022-11-18T10:31:40.764Z,96939.94
2022-11-18T10:34:12.196Z,96931.28
2022-11-18T10:36:41.575Z,96932.38
2022-11-18T10:39:13.434Z,96929.13
2022-11-18T10:41:46.414Z,96925.84
2022-11-18T10:44:38.392Z,96916.81
2022-11-18T10:47:18.482Z,96921.72
2022-11-18T10:49:47.138Z,96929.94
2022-11-18T10:52:16.469Z,96942.63
2022-11-18T10:54:46.015Z,96938.56
2022-11-18T10:57:17.738Z,96933.19
2022-11-18T10:59:47.754Z,96935.03
2022-11-18T11:02:18.867Z,96934.28
2022-11-18T11:04:47.821Z,96933.75
2022-11-18T11:07:27.144Z,96937.25
2022-11-18T11:10:09.027Z,96941.56
2022-11-18T11:12:39.020Z,96939.69
2022-11-18T11:15:12.442Z,96934.00
2022-11-18T11:17:44.109Z,96938.03
2022-11-18T11:20:19.563Z,96936.16
2022-11-18T11:22:48.101Z,96941.28
2022-11-18T11:25:19.578Z,96936.16
2022-11-18T11:30:46.488Z,96933.69
2022-11-18T11:33:28.398Z,96930.22
2022-11-18T11:36:05.119Z,96928.56
2022-11-18T11:38:42.400Z,96925.38
2022-11-18T11:41:17.206Z,96929.94
2022-11-18T11:43:59.823Z,96924.78
2022-11-18T11:46:39.440Z,96924.78
2022-11-18T11:49:18.396Z,96925.09
2022-11-18T11:51:50.416Z,96921.81
2022-11-18T11:54:29.440Z,96915.06
2022-11-18T11:57:00.574Z,96925.38
2022-11-18T11:59:33.289Z,96916.69
2022-11-18T12:02:26.513Z,96917.22
2022-11-18T12:04:56.808Z,96927.50
2022-11-18T12:07:29.190Z,96926.41
2022-11-18T12:10:16.592Z,96923.44
2022-11-18T12:12:53.256Z,96923.16
2022-11-18T12:15:31.324Z,96931.84
2022-11-18T12:18:06.545Z,96935.34
2022-11-18T12:20:43.800Z,96929.69
2022-11-18T12:23:14.156Z,96928.06
2022-11-18T12:26:10.485Z,96927.53
2022-11-18T12:28:42.242Z,96935.88
2022-11-18T12:31:35.338Z,96941.56
2022-11-18T12:34:06.186Z,96941.28
2022-11-18T12:36:36.281Z,96949.59
2022-11-18T12:39:47.510Z,96952.41
2022-11-18T12:42:52.570Z,96944.28
2022-11-18T12:45:51.461Z,96955.09
2022-11-18T12:48:47.037Z,96955.09
2022-11-18T12:51:45.154Z,96963.75
2022-11-18T12:54:34.784Z,96948.06
2022-11-18T12:57:04.746Z,96949.13
2022-11-18T12:59:37.616Z,96950.78
2022-11-18T13:02:19.210Z,96957.25
2022-11-18T13:04:52.138Z,96957.09
2022-11-18T13:07:38.560Z,96947.91
2022-11-18T13:10:21.364Z,96958.28
2022-11-18T13:12:49.874Z,96952.78
2022-11-18T13:15:37.240Z,96965.78
2022-11-18T13:18:15.107Z,96956.91
2022-11-18T13:20:44.277Z,96959.25
2022-11-18T13:23:45.304Z,96965.84
2022-11-18T13:26:20.451Z,96961.28
2022-11-18T13:29:12.337Z,96974.34
2022-11-18T13:31:45.434Z,96965.38
2022-11-18T13:34:19.688Z,96970.09
2022-11-18T13:36:49.915Z,96969.25
2022-11-18T13:39:24.332Z,96978.53
2022-11-18T13:42:06.382Z,96982.59
2022-11-18T13:44:35.961Z,96983.66
2022-11-18T13:47:12.845Z,96985.56
2022-11-18T13:50:02.578Z,96991.22
2022-11-18T13:52:33.698Z,96990.03
2022-11-18T13:55:03.185Z,96987.75
2022-11-18T13:57:31.820Z,96993.78
2022-11-18T14:00:02.400Z,96999.75
2022-11-18T14:02:33.431Z,96998.59
2022-11-18T14:05:03.475Z,96998.41
2022-11-18T14:07:34.084Z,97008.91
2022-11-18T14:10:04.030Z,97000.75
2022-11-18T14:12:33.870Z,97008.25
2022-11-18T14:15:16.888Z,97006.28
2022-11-18T14:17:56.045Z,97017.31
2022-11-18T14:20:25.877Z,97016.19
2022-11-18T14:22:56.148Z,97016.66
2022-11-18T14:25:28.838Z,97022.19
2022-11-18T14:27:58.390Z,97022.47
2022-11-18T14:30:35.729Z,97023.41
2022-11-18T14:33:18.721Z,97027.81
2022-11-18T14:35:50.921Z,97020.59
2022-11-18T14:41:11.695Z,97037.03
2022-11-18T14:43:40.138Z,97034.69
2022-11-18T14:46:14.105Z,97034.59
2022-11-18T14:48:42.495Z,97043.63
2022-11-18T14:51:15.189Z,97032.47
2022-11-18T14:53:43.817Z,97044.94
2022-11-18T14:56:16.022Z,97042.75
2022-11-18T14:58:44.385Z,97052.41
2022-11-18T15:01:13.852Z,97049.56
2022-11-18T15:03:42.455Z,97051.31
2022-11-18T15:06:16.333Z,97066.44
2022-11-18T15:08:46.233Z,97059.16
2022-11-18T15:11:14.997Z,97069.44
2022-11-18T15:13:43.788Z,97077.91
2022-11-18T15:16:15.081Z,97077.22
2022-11-18T15:18:43.979Z,97077.44
2022-11-18T15:21:12.293Z,97074.19
2022-11-18T15:23:43.846Z,97078.53
2022-11-18T15:26:18.055Z,97072.44
2022-11-18T15:28:46.976Z,97084.19
2022-11-18T15:31:15.138Z,97062.34
2022-11-18T15:33:43.756Z,97073.56
2022-11-18T15:36:14.223Z,97083.38
2022-11-18T15:38:44.519Z,97075.94
2022-11-18T15:41:17.612Z,97078.44
2022-11-18T15:43:46.452Z,97094.44
2022-11-18T15:46:14.931Z,97101.53
2022-11-18T15:48:43.278Z,97097.72
2022-11-18T15:51:12.260Z,97105.22
2022-11-18T15:53:41.094Z,97096.03
2022-11-18T15:56:18.175Z,97095.34
2022-11-18T15:58:46.800Z,97109.06
2022-11-18T16:01:15.043Z,97100.94
2022-11-18T16:03:43.639Z,97104.53
2022-11-18T16:06:11.763Z,97098.97
2022-11-18T16:08:40.227Z,97103.88
2022-11-18T16:11:26.371Z,97100.59
2022-11-18T16:13:56.171Z,97104.81
2022-11-18T16:16:27.408Z,97101.63
2022-11-18T16:18:56.281Z,97107.34
2022-11-18T16:21:24.870Z,97119.41
2022-11-18T16:23:55.987Z,97122.66
2022-11-18T16:26:24.155Z,97125.41
2022-11-18T16:28:52.736Z,97124.78
2022-11-18T16:31:40.000Z,97130.34
2022-11-18T16:34:08.989Z,97128.44
2022-11-18T16:36:37.362Z,97132.22
2022-11-18T16:39:07.465Z,97132.72
2022-11-18T16:41:35.911Z,97133.72
2022-11-18T16:44:06.113Z,97139.69
2022-11-18T16:46:37.089Z,97141.88
2022-11-18T16:49:06.332Z,97152.59
2022-11-18T16:51:35.433Z,97155.03
2022-11-18T16:54:05.389Z,97152.97
2022-11-18T16:56:34.939Z,97148.91
2022-11-18T16:59:04.974Z,97150.16
2022-11-18T17:01:36.446Z,97158.31
2022-11-18T17:04:06.544Z,97157.63
2022-11-18T17:06:34.746Z,97157.06
2022-11-18T17:09:03.214Z,97165.41
2022-11-18T17:11:31.427Z,97173.53
2022-11-18T17:13:59.895Z,97169.63
2022-11-18T17:16:28.315Z,97171.91
2022-11-18T17:18:57.845Z,97168.34
2022-11-18T17:21:28.444Z,97167.38
2022-11-18T17:23:57.648Z,97168.09
2022-11-18T17:26:27.532Z,97172.72
2022-11-18T17:28:57.476Z,97175.19
2022-11-18T17:31:26.315Z,97174.84
2022-11-18T17:33:56.212Z,97174.53
2022-11-18T17:36:25.844Z,97176.31
2022-11-18T17:38:56.724Z,97185.47
2022-11-18T17:41:43.653Z,97177.72
2022-11-18T17:44:13.979Z,97182.97
2022-11-18T17:46:42.863Z,97191.75
2022-11-18T17:49:13.539Z,97196.59
2022-11-18T17:51:41.879Z,97187.94
2022-11-18T17:54:12.164Z,97193.75
2022-11-18T17:56:40.643Z,97200.81
2022-11-18T17:59:09.184Z,97195.13
2022-11-18T18:01:37.522Z,97206.13
2022-11-18T18:04:06.279Z,97200.22
2022-11-18T18:06:34.400Z,97204.72
2022-11-18T18:09:02.803Z,97193.50
2022-11-18T18:11:32.421Z,97201.63
2022-11-18T18:14:15.021Z,97205.06
2022-11-18T18:16:45.138Z,97209.19
2022-11-18T18:19:15.582Z,97211.22
2022-11-18T18:21:43.730Z,97213.72
2022-11-18T18:24:12.899Z,97214.09
2022-11-18T18:26:44.076Z,97208.47
2022-11-18T18:29:12.880Z,97211.41
2022-11-18T18:31:42.427Z,97218.88
2022-11-18T18:34:11.044Z,97215.13
2022-11-18T18:36:39.303Z,97215.13
2022-11-18T18:39:07.714Z,97222.50
2022-11-18T18:41:36.487Z,97221.66
2022-11-18T18:44:06.605Z,97225.19
2022-11-18T18:46:33.877Z,97225.06
2022-11-18T18:49:05.243Z,97230.75
2022-11-18T18:51:36.202Z,97233.41
2022-11-18T18:54:04.734Z,97227.31
2022-11-18T18:56:33.704Z,97234.09
2022-11-18T18:59:02.913Z,97233.59
2022-11-18T19:01:33.715Z,97248.09
2022-11-18T19:04:02.670Z,97243.09
2022-11-18T19:06:54.875Z,97245.34
2022-11-18T19:09:20.920Z,97255.72
2022-11-18T19:12:06.462Z,97261.38
2022-11-18T19:14:35.683Z,97251.09
2022-11-18T19:17:10.573Z,97254.56
2022-11-18T19:19:58.692Z,97251.41
2022-11-18T19:22:27.169Z,97251.09
2022-11-18T19:24:56.125Z,97261.94
2022-11-18T19:27:24.828Z,97264.94
2022-11-18T19:29:53.347Z,97253.78
2022-11-18T19:32:23.446Z,97255.63
2022-11-18T19:34:52.181Z,97251.06
2022-11-18T19:37:20.408Z,97255.66
2022-11-18T19:39:49.022Z,97265.66
2022-11-18T19:42:17.110Z,97266.09
2022-11-18T19:44:45.640Z,97269.28
2022-11-18T19:47:13.714Z,97275.56
2022-11-18T19:49:43.528Z,97277.75
2022-11-18T19:52:11.828Z,97266.22
2022-11-18T19:54:40.727Z,97266.16
2022-11-18T19:57:09.131Z,97254.41
2022-11-18T19:59:37.869Z,97266.91
2022-11-18T20:02:06.146Z,97261.28
2022-11-18T20:04:34.786Z,97275.38
2022-11-18T20:07:04.870Z,97274.66
2022-11-18T20:09:33.923Z,97263.63
2022-11-18T20:12:02.171Z,97256.09
2022-11-18T20:14:30.599Z,97276.44
2022-11-18T20:16:58.788Z,97280.66
2022-11-18T20:19:27.245Z,97289.31
2022-11-18T20:21:55.580Z,97299.72
2022-11-18T20:24:25.491Z,97292.44
2022-11-18T20:26:53.634Z,97297.56
2022-11-18T20:29:22.289Z,97305.59
2022-11-18T20:31:50.832Z,97300.22
2022-11-18T20:34:19.335Z,97301.09
2022-11-18T20:36:51.885Z,97317.97
2022-11-18T20:39:20.757Z,97314.06
2022-11-18T20:42:07.147Z,97304.75
2022-11-18T20:44:35.509Z,97301.34
2022-11-18T20:47:03.740Z,97301.69
2022-11-18T20:49:32.073Z,97293.41
2022-11-18T20:52:00.178Z,97297.72
2022-11-18T20:54:28.505Z,97315.13
2022-11-18T20:56:58.110Z,97305.81
2022-11-18T20:59:26.605Z,97320.22
2022-11-18T21:01:54.866Z,97317.91
2022-11-18T21:04:23.785Z,97308.56
2022-11-18T21:06:57.547Z,97301.63
2022-11-18T21:09:26.620Z,97313.00
2022-11-18T21:11:54.982Z,97320.59
2022-11-18T21:14:25.493Z,97329.19
2022-11-18T21:16:55.452Z,97324.63
2022-11-18T21:19:26.286Z,97315.06
2022-11-18T21:21:53.792Z,97322.50
2022-11-18T21:24:23.409Z,97331.53
2022-11-18T21:26:54.782Z,97332.66
2022-11-18T21:29:25.967Z,97336.88
2022-11-18T21:31:54.872Z,97341.09
2022-11-18T21:34:24.359Z,97350.63
2022-11-18T21:36:54.923Z,97359.38
2022-11-18T21:39:23.887Z,97359.50
2022-11-18T21:41:57.087Z,97351.22
2022-11-18T21:44:28.830Z,97356.53
2022-11-18T21:46:57.687Z,97355.16
2022-11-18T21:49:26.481Z,97363.16
2022-11-18T21:51:54.593Z,97360.72
2022-11-18T21:54:23.062Z,97365.53
2022-11-18T21:56:51.233Z,97375.59
2022-11-18T21:59:19.729Z,97370.06
2022-11-18T22:01:49.329Z,97367.75
2022-11-18T22:04:31.620Z,97368.28
2022-11-18T22:06:59.833Z,97358.81
2022-11-18T22:09:34.527Z,97359.38
2022-11-18T22:12:04.323Z,97356.91
2022-11-18T22:14:32.911Z,97362.31
2022-11-18T22:17:02.327Z,97365.91
2022-11-18T22:19:30.816Z,97359.56
2022-11-18T22:21:59.034Z,97370.72
2022-11-18T22:24:27.401Z,97384.16
2022-11-18T22:26:55.459Z,97395.19
2022-11-18T22:29:26.164Z,97389.34
2022-11-18T22:31:54.465Z,97383.00
2022-11-18T22:34:24.356Z,97394.91
2022-11-18T22:36:52.492Z,97397.03
2022-11-18T22:39:21.426Z,97396.22
2022-11-18T22:42:07.408Z,97403.16
2022-11-18T22:44:36.498Z,97405.25
2022-11-18T22:47:04.766Z,97403.94
2022-11-18T22:49:34.634Z,97399.41
2022-11-18T22:52:03.507Z,97401.00
2022-11-18T22:54:38.838Z,97400.00
2022-11-18T22:57:08.171Z,97400.13
2022-11-18T22:59:36.564Z,97404.63
2022-11-18T23:02:04.837Z,97407.56
2022-11-18T23:04:34.826Z,97407.97
2022-11-18T23:07:03.126Z,97409.88
2022-11-18T23:09:31.734Z,97409.88
2022-11-18T23:12:17.279Z,97403.41
2022-11-18T23:14:45.674Z,97409.66
2022-11-18T23:17:13.772Z,97425.03
2022-11-18T23:19:44.004Z,97413.28
2022-11-18T23:22:12.560Z,97417.97
2022-11-18T23:24:41.100Z,97416.25
2022-11-18T23:27:09.187Z,97423.91
2022-11-18T23:29:37.514Z,97426.22
2022-11-18T23:32:06.079Z,97424.16
2022-11-18T23:34:34.630Z,97425.56
2022-11-18T23:37:04.158Z,97418.22
2022-11-18T23:39:32.582Z,97428.09
2022-11-18T23:42:00.684Z,97433.09
2022-11-18T23:44:47.553Z,97436.69
2022-11-18T23:47:15.664Z,97434.94
2022-11-18T23:49:43.973Z,97431.38
2022-11-18T23:52:15.018Z,97424.78
2022-11-18T23:54:43.134Z,97425.53
2022-11-18T23:57:11.220Z,97425.66
2022-11-18T23:59:39.679Z,97435.38
